• Join FlightAware (Why Join?)
  • Login
  • US Flag 
08:20PM EST


 

Airport Tracker/Info


-or-


 

Live Flight TrackerFlight Track Log ✈ UAL407 ✈ 02-May-2013 ✈ KALB - KORD

Flight Track Log - Related Links

Times and Time Zones

All times are in EDT time to prevent confusion due to time zone crossing. See the UAL407 flight status page for this flight to view local times or setup timezone preferences in your user account.

Time Position Orientation Groundspeed Altitude Reporting Facility
EDT Latitude Longitude Course Direction KTS MPH feet Rate Location/Type
06:05PM 42.7653 -73.8061 324° Northwest 142 163 1,300  Level Boston Center
06:06PM 42.8189 -73.8497 329° Northwest 227 261 3,000 2,220 Climbing Boston Center
06:08PM 42.8992 -73.9225 326° Northwest 260 299 6,900 2,760 Climbing Boston Center
06:09PM 42.8277 -74.3022 284° West  Level FlightAware Approximate
06:09PM 42.9569 -73.9778 325° Northwest 273 314 9,700  Level Boston Center
06:10PM 42.8495 -74.4299 283° West  Level FlightAware Approximate
06:10PM 43.0308 -74.0592 321° Northwest 294 338 11,900  Level Boston Center
06:11PM 42.8815 -74.5482 324° Northwest  Level FlightAware Approximate
06:11PM 43.0922 -74.1431 315° West 327 376 14,100  Level Boston Center
06:12PM 43.1061 -74.3200 276° West 374 430 16,700 2,340 Climbing Boston Center
06:13PM 43.1136 -74.4878 274° West 403 464 18,800 2,040 Climbing Boston Center
06:14PM 43.1169 -74.6417 272° West 408 470 20,800 1,800 Climbing Boston Center
06:15PM 43.1222 -74.7983 273° West 408 470 22,400 1,620 Climbing Boston Center
06:16PM 43.1269 -74.9636 272° West 419 482 24,400 1,560 Climbing Boston Center
06:17PM 43.1328 -75.1572 272° West 424 488 25,900 1,260 Climbing Boston Center
06:18PM 43.1372 -75.3253 272° West 429 494 27,000 1,080 Climbing Boston Center
06:19PM 43.1431 -75.4964 273° West 440 506 28,100 1,020 Climbing Boston Center
06:20PM 43.1472 -75.6503 272° West 453 521 29,100 1,200 Climbing Boston Center
06:21PM 43.1525 -75.8242 272° West 453 521 30,600 1,320 Climbing Boston Center
06:22PM 43.1558 -75.9953 272° West 458 527 31,800 1,140 Climbing Boston Center
06:23PM 43.1608 -76.1608 272° West 458 527 32,900 1,020 Climbing Boston Center
06:24PM 43.1614 -76.3317 270° West 458 527 33,900 840 Climbing Boston Center
06:24PM 43.1597 -76.3906 268° West 454 522 34,000 600 Climbing Cleveland Center
06:25PM 43.1614 -76.5556 271° West 454 522 34,700 660 Climbing Cleveland Center
06:26PM 43.1597 -76.6894 269° West 454 522 35,400 600 Climbing Cleveland Center
06:27PM 43.1597 -76.8831 270° West 442 509 36,000 300 Climbing Cleveland Center
06:28PM 43.1586 -77.0483 270° West 437 503 36,000  Level Cleveland Center
06:29PM 43.1572 -77.2106 269° West 437 503 36,000  Level Cleveland Center
06:30PM 43.1575 -77.3700 270° West 437 503 36,000  Level Cleveland Center
06:31PM 43.1558 -77.5353 269° West 437 503 36,000  Level Cleveland Center
06:32PM 43.1539 -77.7003 269° West 437 503 36,000  Level Cleveland Center
06:33PM 43.1514 -77.8656 269° West 442 509 36,000  Level Cleveland Center
06:34PM 43.1469 -78.0281 268° West 442 509 36,000  Level Cleveland Center
06:35PM 43.1461 -78.1872 270° West 442 509 36,000  Level Cleveland Center
06:36PM 43.1431 -78.3525 269° West 442 509 36,000  Level Cleveland Center
06:37PM 43.1400 -78.5147 269° West 442 509 36,000  Level Cleveland Center
06:38PM 43.1344 -78.6744 267° West 442 509 36,000  Level Cleveland Center
06:39PM 43.1306 -78.8394 268° West 437 503 36,000  Level Cleveland Center
06:40PM 43.1167 -78.9500 260° West 430 495 36,000  Level Toronto Center
06:41PM 43.1167 -79.1000 270° West 420 483 36,000  Level Toronto Center
06:42PM 43.1000 -79.2500 261° West 420 483 36,000  Level Toronto Center
06:43PM 43.1000 -79.4333 270° West 420 483 36,000  Level Toronto Center
06:44PM 43.1000 -79.5667 270° West 420 483 36,000  Level Toronto Center
06:45PM 43.0833 -79.7500 263° West 420 483 36,000  Level Toronto Center
06:46PM 43.0833 -79.9000 270° West 420 483 36,000  Level Toronto Center
06:47PM 43.0833 -80.0667 270° West 420 483 36,000  Level Toronto Center
06:48PM 43.0667 -80.2333 262° West 420 483 36,000  Level Toronto Center
06:49PM 43.0667 -80.3667 270° West 420 483 36,000  Level Toronto Center
06:50PM 43.0667 -80.5500 270° West 420 483 36,000  Level Toronto Center
06:51PM 43.0500 -80.7000 261° West 420 483 36,000  Level Toronto Center
06:52PM 43.0333 -80.8500 261° West 420 483 36,000  Level Toronto Center
06:53PM 43.0333 -81.0000 270° West 410 472 36,000  Level Toronto Center
06:54PM 43.0167 -81.1667 262° West 420 483 36,000  Level Toronto Center
06:55PM 43.0167 -81.3167 270° West 420 483 36,000  Level Toronto Center
06:56PM 43.0167 -81.4833 270° West 420 483 36,000  Level Toronto Center
06:57PM 43.0167 -81.6333 270° West 420 483 36,000  Level Toronto Center
06:58PM 43.0167 -81.8000 270° West 420 483 36,000  Level Toronto Center
06:59PM 43.0000 -81.9667 262° West 420 483 36,000  Level Toronto Center
07:00PM 43.0000 -82.1167 270° West 420 483 36,000  Level Toronto Center
07:01PM 43.0000 -82.2833 270° West 420 483 36,000  Level Toronto Center
07:02PM 43.0000 -82.4333 270° West 400 460 36,000  Level Toronto Center
07:03PM 43.0000 -82.5667 270° West 400 460 36,000  Level Toronto Center
07:04PM 43.0131 -82.7497 276° West 403 464 36,000  Level Cleveland Center
07:05PM 43.0667 -82.8878 298° West 398 458 36,000  Level Cleveland Center
07:06PM 43.1219 -83.0264 299° West 398 458 36,000  Level Cleveland Center
07:07PM 43.1794 -83.1656 300° West 408 470 36,000 -540 Level Cleveland Center
07:08PM 43.1928 -83.3083 277° West 398 458 35,000 -960 Descending Cleveland Center
07:09PM 43.1603 -83.4522 253° West 389 448 34,100 -960 Descending Cleveland Center
07:10PM 43.1250 -83.6069 253° West 400 460 33,100 -1,020 Descending Cleveland Center
07:11PM 43.0853 -83.7642 251° West 420 483 32,100 -600 Descending Cleveland Center
07:12PM 43.0475 -83.9244 252° West 432 497 32,000 -60 Descending Cleveland Center
07:13PM 43.0075 -84.0811 251° West 437 503 32,000  Level Cleveland Center
07:14PM 42.9692 -84.2381 252° West 437 503 32,000  Level Cleveland Center
07:15PM 42.9336 -84.3750 251° West 436 502 32,000  Level Cleveland Center
07:16PM 42.9064 -84.4925 252° West 436 502 32,000  Level Chicago Center
07:17PM 42.8756 -84.6511 255° West 434 499 32,000  Level Chicago Center
07:18PM 42.8608 -84.8142 263° West 437 503 32,000  Level Chicago Center
07:19PM 42.8431 -84.9764 262° West 433 498 32,000  Level Chicago Center
07:20PM 42.8258 -85.1378 262° West 433 498 32,000 -900 Level Chicago Center
07:21PM 42.8050 -85.3319 262° West 431 496 30,200 -1,860 Descending Chicago Center
07:22PM 42.7875 -85.4819 261° West 412 474 28,200 -2,040 Descending Chicago Center
07:23PM 42.7650 -85.6169 257° West 376 433 26,100 -2,160 Descending Chicago Center
07:24PM 42.7403 -85.7517 256° West 366 421 23,800 -2,160 Descending Chicago Center
07:25PM 42.7158 -85.8892 256° West 371 427 21,700 -1,860 Descending Chicago Center
07:26PM 42.6897 -86.0317 256° West 382 440 20,000 -840 Descending Chicago Center
07:27PM 42.6633 -86.1797 256° West 398 458 20,000  Level Chicago Center
07:28PM 42.6353 -86.3247 255° West 396 456 20,000 -900 Level Chicago Center
07:29PM 42.6017 -86.4961 255° West 390 449 18,200 -1,620 Descending Chicago Center
07:30PM 42.5761 -86.6342 256° West 379 436 16,700 -1,560 Descending Chicago Center
07:31PM 42.5494 -86.7719 255° West 378 435 15,000 -1,500 Descending Chicago Center
07:32PM 42.5169 -86.8889 249° West 344 396 13,700 -1,320 Descending Chicago Center
07:33PM 42.4872 -86.9939 249° West 305 351 12,300 -1,260 Descending Chicago Center
07:34PM 42.4569 -87.0989 249° West 300 345 11,200 -1,140 Descending Chicago Center
07:35PM 42.4247 -87.2211 250° West 289 333 10,000 -600 Descending Chicago Center
07:36PM 42.3958 -87.3264 250° West 295 339 10,000  Level Chicago Center
07:37PM 42.3686 -87.4269 250° West 295 339 10,000 -300 Level Chicago Center
07:39PM 42.3392 -87.5267 248° West 289 333 9,500 -780 Descending Chicago Center
07:40PM 42.2822 -87.5950 222° Southwest 274 315 8,400 -1,140 Descending Chicago Center
07:41PM 42.2117 -87.6675 217° Southwest 268 308 7,200 -720 Descending Chicago Center
07:42PM 42.1539 -87.7286 218° Southwest 266 306 7,000 -120 Descending Chicago Center
07:43PM 42.0833 -87.8167 223° Southwest 277 319 7,000  Level Chicago TRACON
07:45PM 42.1000 -88.0333 276° West 285 328 7,000 -660 Level Chicago TRACON
07:46PM 42.0833 -88.1333 257° West 274 315 5,100 -1,560 Descending Chicago TRACON
07:47PM 42.0903 -88.2256 276° West 275 316 4,000 -600 Descending Chicago Center
07:48PM 42.0903 -88.3142 270° West 254 292 4,000  Level Chicago Center
07:49PM 42.0878 -88.3986 268° West 237 273 4,000  Level Chicago Center
07:50PM 42.0289 -88.4164 193° South 231 266 4,000  Level Chicago Center
07:51PM 41.9825 -88.3544 135° Southeast 222 255 4,000  Level Chicago Center
07:52PM 41.9833 -88.2747 89° East 220 253 4,000  Level Chicago Center
07:53PM 41.9825 -88.2078 91° East 201 231 4,000 -60 Level Chicago Center
07:54PM 41.9833 -88.1431 89° East 187 215 3,900 -540 Descending Chicago Center
07:55PM 41.9833 -88.0833 90° East 179 206 3,100 -960 Descending Chicago TRACON
07:56PM 41.9833 -88.0167 90° East 153 176 2,200 -900 Descending Chicago TRACON